KCHD

Details ICAO KCHD
Name CHANDLER MUNI
Region United States
Timezone America/Phoenix (UTC-7.0)
Plans Departing 54
Arriving 21
Stats Elevation 1,243 ft / 379 m (AMSL)
Location 33.269044° -111.811282°
Runways 2
Magnetic Variation 10.188° E
Sunrise 2018-05-27 12:22:03 UTC / 2018-05-27 05:22:03 Local
Sunset 2018-05-28 02:29:43 UTC / 2018-05-27 19:29:43 Local
Advertisement - Login to hide

Runways

ID Width Length Bearing (true) Bearing (mag) Surface Threshold Offset Overrun Length
04L 75 ft / 23 m 4,401 ft / 1,341 m 49.49° 39.30° Asphalt 0 ft / 0 m 0 ft / 0 m
04R 75 ft / 23 m 4,870 ft / 1,484 m 49.50° 39.31° Asphalt 0 ft / 0 m 90 ft / 27 m
22L 75 ft / 23 m 4,870 ft / 1,484 m 229.51° 219.32° Asphalt 0 ft / 0 m 90 ft / 27 m
22R 75 ft / 23 m 4,401 ft / 1,341 m 229.50° 219.31° Asphalt 0 ft / 0 m 0 ft / 0 m

Map

Weather


0- 5 10 15 20 25 30 35+ Temperature / ° C

Clouds and Precipitation
Forecast for 2018-05-27 18:00 UTC. Updated 5 hours ago

Ground ~20,000 ft ~40,000 ft Winds

METAR

KCHD 272047Z 30008KT 10SM CLR 31/01 A2981

TAF

Not found

Frequencies

Recorded 128.32 MHz ATIS
Unicom 122.95 MHz UNICOM
Tower 133.10 MHz TWR
Approach 123.70 MHz PHOENIX APP/DEP
Recorded 128.32 MHz AWOS 3
Ground 124.40 MHz GND
Tower 126.10 MHz TWR
Warning: Do not use this data for real-world aviation or navigation. No guarantee of current accuracy is given.